Portada
METAR-TAF:

METAR-TAF

Aeroports :

Base aèria

Niederstetten, Alemanya

latitud: 49-24N, longitud: 009-58E, altitud: 468 m

Observació

L'informe es va fer fa 17 minuts, a les 10:20 UTC
Vent 14 kt del Oest
Temperatura 3°C
Humitat 75%
Pressió 1028 hPa
Visibilitat 10 km o més
Escasses núvols a una alçada de 1600 ft
Núvols disperses a una alçada de 23000 ft

METAR: ETHN 211020Z 26014KT 9999 FEW016 SCT230 03/M01 Q1028 BLU+BLU+

Hora: 11:37 (10:37 UTC)

Pronòstic

L'informe es va fer fa 2 hores i 37 minuts, a les 08:00 UTC
Pronòstic vàlid del 21 a les 09 UTC al 21 a les 18 UTC
Vent 16 kt del Oest
Visibilitat 10 km o més
Núvols disperses a una alçada de 2500 ft

TAF: ETHN 210800Z 2109/2118 26016KT 9999 NSW SCT025

Observacions i pronòstics meteorològics de més de 4000 aeroports (METAR i TAF).

Les estacions disponibles són els punts grocs i vermells al mapa.

Posi el ratolí al punt desitjat per veure el nom de l'estació.

Feu clic per veure les observacions i els pronòstics meteorològics.

Per canviar el mapa: feu clic els botons verds amb una creu de color negre per apropar; al botó verd amb un guió per allunyar la imatge; o en les fletxes verdes per a mapes adjacents.


METAR-TAF: